Nearby METAR Reports

 

KMTN - Baltimore/Martin, Maryland, USA
Distance from station: SSE 8mi, 13km
Updated: Mon, 24-Nov-2014 6:45pm EST
Clear
Clear
 Wind from SSE
Wind: SSE 7 mph , 11 km/h
Temperature: 55°F , 13°C
Dew Point: 54°F , 12°C
Humidity: 94%
Barometer: 29.70 inHg , 1005.8 hPa
Clouds: Clear
Visibility: 10 miles , 16 km
2014/11/24 23:45 KMTN 242345Z 15006KT 10SM SKC 13/12 A2970
KDMH - Baltimore/Dwntwn, Maryland, USA
Distance from station: SW 12mi, 19km
Updated: Mon, 24-Nov-2014 6:54pm EST

 
Temperature: 64°F , 18°C
Dew Point: 52°F , 11°C
Humidity: 64%
Barometer: 29.68 inHg , 1005.1 hPa
2014/11/24 23:54 KDMH 242354Z AUTO 18/11 A2968 RMK AO1 SLP049 T01780111 10217 20178 51018
 
KBWI - Balto/Wash Intl, Maryland, USA
Distance from station: SSW 20mi, 33km
Updated: Mon, 24-Nov-2014 6:54pm EST
Clear
Clear
 Wind from SSW
Wind: SSW 6 mph , 9 km/h
Temperature: 66°F , 19°C
Dew Point: 52°F , 11°C
Humidity: 60%
Barometer: 29.67 inHg , 1004.7 hPa
Clouds: Clear
Visibility: 10 miles , 16 km
2014/11/24 23:54 KBWI 242354Z 20005KT 10SM CLR 19/11 A2967 RMK AO2 SLP047 T01890111 10222 20189 51015
KDMW - Carroll Cnty, Maryland, USA
Distance from station: WNW 30mi, 48km
Updated: Mon, 24-Nov-2014 6:45pm EST
Partly cloudy
Partly cloudy
 Wind from S
Wind: S 13 mph , 20 km/h, Gust: 20 mph , 31 km/h
Temperature: 64°F , 18°C
Dew Point: 52°F , 11°C
Humidity: 64%
Barometer: 29.66 inHg , 1004.4 hPa
Clouds: Partly cloudy
Visibility: 10 miles , 16 km
Cloud details: Partly cloudy 9000 ft
2014/11/24 23:45 KDMW 242345Z AUTO 18011G17KT 10SM SCT090 18/11 A2966 RMK AO2
 
KNAK - Annapolis/Naval, Maryland, USA
Distance from station: S 30mi, 48km
Updated: Mon, 24-Nov-2014 6:54pm EST
Clear
Clear
 Wind from S
Wind: S 7 mph , 11 km/h
Temperature: 57°F , 14°C
Dew Point: 50°F , 10°C
Humidity: 77%
Barometer: 29.70 inHg , 1005.8 hPa
Clouds: Clear
Visibility: 10 miles , 16 km
2014/11/24 23:54 KNAK 242354Z AUTO 17006KT 10SM CLR 14/10 A2970 RMK AO2 SLP058 T01390100 10217 20139 51015
KW29 - Stevensville, Maryland, USA
Distance from station: SSE 31mi, 50km
Updated: Mon, 24-Nov-2014 6:44pm EST

 Wind from SSE
Wind: SSE 8 mph , 13 km/h
Temperature: 63°F , 17°C
Dew Point: 52°F , 11°C
Humidity: 68%
Barometer: 29.70 inHg , 1005.8 hPa
Visibility: 10 miles , 16 km
2014/11/24 23:44 KW29 242344Z AUTO 16007KT 10SM 17/11 A2970 RMK AO1
 
KCGS - College Park, Maryland, USA
Distance from station: SW 38mi, 61km
Updated: Mon, 24-Nov-2014 6:40pm EST
Clear
Clear
 Wind from S
Wind: S 3 mph , 6 km/h
Temperature: 68°F , 20°C
Dew Point: 54°F , 12°C
Humidity: 60%
Barometer: 29.68 inHg , 1005.1 hPa
Clouds: Clear
Visibility: 10 miles , 16 km
2014/11/24 23:40 KCGS 242340Z AUTO 19003KT 10SM CLR 20/12 A2968 RMK AO1
KGAI - Gaithersburg, Maryland, USA
Distance from station: WSW 40mi, 65km
Updated: Mon, 24-Nov-2014 6:55pm EST
Clear
Clear
 Wind from S
Wind: S 9 mph , 15 km/h
Temperature: 66°F , 19°C
Dew Point: 52°F , 11°C
Humidity: 60%
Barometer: 29.71 inHg , 1006.1 hPa
Clouds: Clear
Visibility: 10 miles , 16 km
2014/11/24 23:55 KGAI 242355Z 19008KT 10SM CLR 19/11 A2971 RMK AO1 10210 20190 402100090 52014
 
KTHV - York, Pennsylvania, USA
Distance from station: NNW 40mi, 65km
Updated: Mon, 24-Nov-2014 6:53pm EST
Clear
Clear
 Wind from SSW
Wind: SSW 9 mph , 15 km/h, Gust: 17 mph , 28 km/h
Temperature: 66°F , 19°C
Dew Point: 52°F , 11°C
Humidity: 60%
Barometer: 29.64 inHg , 1003.7 hPa
Clouds: Clear
Visibility: 10 miles , 16 km
2014/11/24 23:53 KTHV 242353Z AUTO 20008G15KT 10SM CLR 19/11 A2964 RMK AO2 SLP037 T01890106 10206 20189 51019
KFDK - Frederick, Maryland, USA
Distance from station: W 47mi, 75km
Updated: Mon, 24-Nov-2014 6:45pm EST
Clear
Clear
 Wind from SSW
Wind: SSW 12 mph , 19 km/h, Gust: 17 mph , 28 km/h
Temperature: 68°F , 20°C
Dew Point: 50°F , 10°C
Humidity: 53%
Barometer: 29.67 inHg , 1004.7 hPa
Clouds: Clear
Visibility: 10 miles , 16 km
2014/11/24 23:45 KFDK 242345Z 20010G15KT 10SM SKC 20/10 A2967
 
KESN - Easton/Newnam, Maryland, USA
Distance from station: SSE 48mi, 78km
Updated: Mon, 24-Nov-2014 6:50pm EST
Clear
Clear
 Wind from S
Wind: S 9 mph , 15 km/h
Temperature: 66°F , 19°C
Dew Point: 57°F , 14°C
Humidity: 73%
Barometer: 29.75 inHg , 1007.5 hPa
Clouds: Clear
Visibility: 10 miles , 16 km
2014/11/24 23:50 KESN 242350Z 19008KT 10SM SKC 19/14 A2975
KDCA - Washington/Natl, Washington D.c., USA
Distance from station: SW 49mi, 79km
Updated: Mon, 24-Nov-2014 6:52pm EST
Clear
Clear
 Wind from S
Wind: S 12 mph , 19 km/h
Temperature: 66°F , 19°C
Dew Point: 52°F , 11°C
Humidity: 60%
Barometer: 29.70 inHg , 1005.8 hPa
Clouds: Clear
Visibility: 10 miles , 16 km
2014/11/24 23:52 KDCA 242352Z 19010KT 10SM CLR 19/11 A2970 RMK AO2 SLP055 T01940111 10233 20167 53017
 
KLNS - Lancaster, Pennsylvania, USA
Distance from station: N 49mi, 79km
Updated: Mon, 24-Nov-2014 6:53pm EST
Clear
Clear
 Wind from S
Wind: S 8 mph , 13 km/h
Temperature: 63°F , 17°C
Dew Point: 52°F , 11°C
Humidity: 68%
Barometer: 29.65 inHg , 1004.1 hPa
Clouds: Clear
Visibility: 10 miles , 16 km
2014/11/24 23:53 KLNS 242353Z 19007KT 10SM CLR 17/11 A2965 RMK AO2 SLP037 T01670106 10206 20161 51016
KILG - Wilmington, Delaware, USA
Distance from station: ENE 50mi, 81km
Updated: Mon, 24-Nov-2014 6:51pm EST
Clear
Clear
 Wind from SSW
Wind: SSW 14 mph , 22 km/h
Temperature: 66°F , 19°C
Dew Point: 54°F , 12°C
Humidity: 64%
Barometer: 29.70 inHg , 1005.8 hPa
Clouds: Clear
Visibility: 10 miles , 16 km
2014/11/24 23:51 KILG 242351Z AUTO 20012KT 10SM CLR 19/12 A2970 RMK AO2 SLP056 T01890122 10217 20189 51019